Flugplatz Berlin-Schönefeld International

Bericht für EDDB

vom 23.01. um 15:50 UTC

Wind 11 kt aus 100°

Sichtweite 7000 m

aufgebrochene Bewölkung in 1200 ft

Temperatur -6.0°C

Taupunkt -9.0°C

Luftfeuchtigkeit 79%

Luftdruck 1006 hPa

EDDB 231550Z 10011KT 060V130 7000 BKN012 M06/M09 Q1006 TEMPO 4000 BR

Prognose für EDDB

vom 23.01. um 11:00 UTC

Zwischen 12:00 UTC und 15:00 UTC

Wind 9 kt aus 80°

Sichtweite 4000 m

feuchter Dunst

aufgebrochene Bewölkung in 1000 ft


Zwischen 12:00 UTC und 15:00 UTC zeitweise

Sichtweite 6000 m

aufgelockert bewölkt in 1000 ft


Zwischen 15:00 und 18:00 UTC übergehend zu

Wind 9 kt aus 80°

Sichtweite 5000 m

feuchter Dunst

aufgebrochene Bewölkung in 1500 ft


Zwischen 18:00 UTC und 08:00 UTC zeitweise

Sichtweite 3000 m

feuchter Dunst

aufgebrochene Bewölkung in 800 ft

TAF EDDB 231100Z 2312/2412 08009KT 4000 BR BKN010 TEMPO 2312/2315 6000 SCT010 BECMG 2315/2318 5000 BR BKN015 TEMPO 2318/2408 3000 BR BKN008
Impressum